sensor_id;sensor_type;location;lat;lon;timestamp;P1;durP1;ratioP1;P2;durP2;ratioP2
71558;SDS011;59382;43.852;25.952;2022-07-17T00:00:59;5.53;;;2.20;;
71558;SDS011;59382;43.852;25.952;2022-07-17T00:03:24;5.88;;;2.15;;
71558;SDS011;59382;43.852;25.952;2022-07-17T00:05:50;5.05;;;2.25;;
71558;SDS011;59382;43.852;25.952;2022-07-17T00:08:16;3.67;;;2.22;;
71558;SDS011;59382;43.852;25.952;2022-07-17T00:10:42;7.00;;;2.40;;
71558;SDS011;59382;43.852;25.952;2022-07-17T00:13:09;2.58;;;2.25;;
71558;SDS011;59382;43.852;25.952;2022-07-17T00:15:35;3.15;;;1.80;;
71558;SDS011;59382;43.852;25.952;2022-07-17T00:18:02;10.32;;;2.25;;
71558;SDS011;59382;43.852;25.952;2022-07-17T00:20:28;3.63;;;1.90;;
71558;SDS011;59382;43.852;25.952;2022-07-17T00:22:55;3.15;;;2.30;;
71558;SDS011;59382;43.852;25.952;2022-07-17T00:25:21;2.85;;;2.13;;
71558;SDS011;59382;43.852;25.952;2022-07-17T00:27:47;5.15;;;2.22;;
71558;SDS011;59382;43.852;25.952;2022-07-17T00:30:12;9.50;;;2.58;;
71558;SDS011;59382;43.852;25.952;2022-07-17T00:32:38;24.27;;;6.18;;
71558;SDS011;59382;43.852;25.952;2022-07-17T00:35:05;16.20;;;5.05;;
71558;SDS011;59382;43.852;25.952;2022-07-17T00:37:30;8.32;;;3.67;;
71558;SDS011;59382;43.852;25.952;2022-07-17T00:40:02;7.00;;;2.42;;
71558;SDS011;59382;43.852;25.952;2022-07-17T00:42:28;16.80;;;6.07;;
71558;SDS011;59382;43.852;25.952;2022-07-17T00:44:53;18.88;;;5.20;;
71558;SDS011;59382;43.852;25.952;2022-07-17T00:47:19;21.10;;;7.97;;
71558;SDS011;59382;43.852;25.952;2022-07-17T00:49:46;16.02;;;4.63;;
71558;SDS011;59382;43.852;25.952;2022-07-17T00:52:13;13.02;;;4.05;;
71558;SDS011;59382;43.852;25.952;2022-07-17T00:54:40;5.47;;;2.65;;
71558;SDS011;59382;43.852;25.952;2022-07-17T00:57:08;38.28;;;12.13;;
71558;SDS011;59382;43.852;25.952;2022-07-17T00:59:36;37.47;;;12.27;;
71558;SDS011;59382;43.852;25.952;2022-07-17T01:02:09;51.25;;;13.10;;
71558;SDS011;59382;43.852;25.952;2022-07-17T01:04:36;43.40;;;14.10;;
71558;SDS011;59382;43.852;25.952;2022-07-17T01:07:03;57.00;;;16.27;;
71558;SDS011;59382;43.852;25.952;2022-07-17T01:09:30;68.18;;;18.95;;
71558;SDS011;59382;43.852;25.952;2022-07-17T01:11:58;50.97;;;15.95;;
71558;SDS011;59382;43.852;25.952;2022-07-17T01:14:25;54.25;;;16.70;;
71558;SDS011;59382;43.852;25.952;2022-07-17T01:16:52;61.25;;;18.45;;
71558;SDS011;59382;43.852;25.952;2022-07-17T01:19:18;41.47;;;12.63;;
71558;SDS011;59382;43.852;25.952;2022-07-17T01:21:48;47.25;;;14.88;;
71558;SDS011;59382;43.852;25.952;2022-07-17T01:24:15;48.65;;;14.57;;
71558;SDS011;59382;43.852;25.952;2022-07-17T01:26:42;44.05;;;14.63;;
71558;SDS011;59382;43.852;25.952;2022-07-17T01:29:09;47.72;;;13.60;;
71558;SDS011;59382;43.852;25.952;2022-07-17T01:31:38;46.22;;;15.40;;
71558;SDS011;59382;43.852;25.952;2022-07-17T01:34:06;35.92;;;12.70;;
71558;SDS011;59382;43.852;25.952;2022-07-17T01:36:33;21.30;;;6.05;;
71558;SDS011;59382;43.852;25.952;2022-07-17T01:38:59;18.80;;;6.13;;
71558;SDS011;59382;43.852;25.952;2022-07-17T01:41:25;27.77;;;8.93;;
71558;SDS011;59382;43.852;25.952;2022-07-17T01:43:51;34.70;;;9.95;;
71558;SDS011;59382;43.852;25.952;2022-07-17T01:46:17;41.88;;;12.52;;
71558;SDS011;59382;43.852;25.952;2022-07-17T01:48:44;42.05;;;10.40;;
71558;SDS011;59382;43.852;25.952;2022-07-17T01:51:09;22.90;;;6.95;;
71558;SDS011;59382;43.852;25.952;2022-07-17T01:53:35;18.35;;;5.53;;
71558;SDS011;59382;43.852;25.952;2022-07-17T01:56:01;9.27;;;3.47;;
71558;SDS011;59382;43.852;25.952;2022-07-17T01:58:30;4.43;;;2.42;;
71558;SDS011;59382;43.852;25.952;2022-07-17T02:00:55;3.55;;;3.25;;
71558;SDS011;59382;43.852;25.952;2022-07-17T02:03:21;3.97;;;2.40;;
71558;SDS011;59382;43.852;25.952;2022-07-17T02:05:47;8.55;;;2.58;;
71558;SDS011;59382;43.852;25.952;2022-07-17T02:08:12;3.88;;;2.03;;
71558;SDS011;59382;43.852;25.952;2022-07-17T02:10:38;2.80;;;2.20;;
71558;SDS011;59382;43.852;25.952;2022-07-17T02:13:03;2.80;;;2.08;;
71558;SDS011;59382;43.852;25.952;2022-07-17T02:15:29;4.97;;;2.25;;
71558;SDS011;59382;43.852;25.952;2022-07-17T02:17:55;4.45;;;2.25;;
71558;SDS011;59382;43.852;25.952;2022-07-17T02:20:21;5.10;;;2.13;;
71558;SDS011;59382;43.852;25.952;2022-07-17T02:22:47;2.75;;;2.35;;
71558;SDS011;59382;43.852;25.952;2022-07-17T02:25:15;3.92;;;1.98;;
71558;SDS011;59382;43.852;25.952;2022-07-17T02:27:41;4.57;;;2.42;;
71558;SDS011;59382;43.852;25.952;2022-07-17T02:30:11;3.50;;;2.22;;
71558;SDS011;59382;43.852;25.952;2022-07-17T02:32:39;2.97;;;2.45;;
71558;SDS011;59382;43.852;25.952;2022-07-17T02:35:05;3.90;;;2.35;;
71558;SDS011;59382;43.852;25.952;2022-07-17T02:37:32;4.30;;;2.65;;
71558;SDS011;59382;43.852;25.952;2022-07-17T02:39:58;4.20;;;2.30;;
71558;SDS011;59382;43.852;25.952;2022-07-17T02:42:24;5.88;;;2.00;;
71558;SDS011;59382;43.852;25.952;2022-07-17T02:44:52;3.95;;;2.63;;
71558;SDS011;59382;43.852;25.952;2022-07-17T02:49:49;9.88;;;2.72;;
71558;SDS011;59382;43.852;25.952;2022-07-17T02:52:15;13.05;;;3.55;;
71558;SDS011;59382;43.852;25.952;2022-07-17T02:54:41;8.77;;;3.30;;
71558;SDS011;59382;43.852;25.952;2022-07-17T02:57:06;7.22;;;2.70;;
71558;SDS011;59382;43.852;25.952;2022-07-17T02:59:32;4.78;;;2.53;;
71558;SDS011;59382;43.852;25.952;2022-07-17T03:01:57;3.20;;;2.15;;
71558;SDS011;59382;43.852;25.952;2022-07-17T03:04:23;9.18;;;2.85;;
71558;SDS011;59382;43.852;25.952;2022-07-17T03:06:48;5.20;;;2.20;;
71558;SDS011;59382;43.852;25.952;2022-07-17T03:09:14;4.05;;;2.60;;
71558;SDS011;59382;43.852;25.952;2022-07-17T03:11:40;13.68;;;3.92;;
71558;SDS011;59382;43.852;25.952;2022-07-17T03:14:05;12.10;;;5.13;;
71558;SDS011;59382;43.852;25.952;2022-07-17T03:16:31;16.98;;;6.38;;
71558;SDS011;59382;43.852;25.952;2022-07-17T03:18:56;21.83;;;7.00;;
71558;SDS011;59382;43.852;25.952;2022-07-17T03:21:22;17.83;;;7.10;;
71558;SDS011;59382;43.852;25.952;2022-07-17T03:23:48;19.90;;;6.68;;
71558;SDS011;59382;43.852;25.952;2022-07-17T03:26:14;24.77;;;7.85;;
71558;SDS011;59382;43.852;25.952;2022-07-17T03:28:39;26.77;;;7.60;;
71558;SDS011;59382;43.852;25.952;2022-07-17T03:31:04;7.05;;;3.85;;
71558;SDS011;59382;43.852;25.952;2022-07-17T03:33:30;3.30;;;2.60;;
71558;SDS011;59382;43.852;25.952;2022-07-17T03:35:55;2.33;;;2.00;;
71558;SDS011;59382;43.852;25.952;2022-07-17T03:38:21;5.93;;;1.98;;
71558;SDS011;59382;43.852;25.952;2022-07-17T03:40:47;3.85;;;2.15;;
71558;SDS011;59382;43.852;25.952;2022-07-17T03:43:12;3.60;;;2.28;;
71558;SDS011;59382;43.852;25.952;2022-07-17T03:45:39;7.00;;;2.20;;
71558;SDS011;59382;43.852;25.952;2022-07-17T03:48:05;12.23;;;4.18;;
71558;SDS011;59382;43.852;25.952;2022-07-17T03:50:31;11.38;;;4.88;;
71558;SDS011;59382;43.852;25.952;2022-07-17T03:52:56;9.05;;;3.90;;
71558;SDS011;59382;43.852;25.952;2022-07-17T03:55:22;4.97;;;3.03;;
71558;SDS011;59382;43.852;25.952;2022-07-17T03:57:48;7.70;;;2.88;;
71558;SDS011;59382;43.852;25.952;2022-07-17T04:00:13;7.63;;;2.78;;
71558;SDS011;59382;43.852;25.952;2022-07-17T04:02:40;10.13;;;2.55;;
71558;SDS011;59382;43.852;25.952;2022-07-17T04:05:06;7.45;;;2.50;;
71558;SDS011;59382;43.852;25.952;2022-07-17T04:07:35;4.70;;;2.67;;
71558;SDS011;59382;43.852;25.952;2022-07-17T04:10:02;4.30;;;2.40;;
71558;SDS011;59382;43.852;25.952;2022-07-17T04:12:28;6.97;;;3.03;;
71558;SDS011;59382;43.852;25.952;2022-07-17T04:14:54;5.55;;;2.40;;
71558;SDS011;59382;43.852;25.952;2022-07-17T04:17:20;5.05;;;2.55;;
71558;SDS011;59382;43.852;25.952;2022-07-17T04:19:46;4.13;;;2.33;;
71558;SDS011;59382;43.852;25.952;2022-07-17T04:22:12;2.80;;;2.30;;
71558;SDS011;59382;43.852;25.952;2022-07-17T04:24:38;10.70;;;2.50;;
71558;SDS011;59382;43.852;25.952;2022-07-17T04:27:03;10.50;;;2.35;;
71558;SDS011;59382;43.852;25.952;2022-07-17T04:29:29;6.75;;;2.58;;
71558;SDS011;59382;43.852;25.952;2022-07-17T04:31:55;7.90;;;2.75;;
71558;SDS011;59382;43.852;25.952;2022-07-17T04:34:20;2.85;;;2.47;;
71558;SDS011;59382;43.852;25.952;2022-07-17T04:36:46;5.65;;;2.63;;
71558;SDS011;59382;43.852;25.952;2022-07-17T04:39:11;5.72;;;2.50;;
71558;SDS011;59382;43.852;25.952;2022-07-17T04:41:37;6.78;;;3.25;;
71558;SDS011;59382;43.852;25.952;2022-07-17T04:44:02;5.35;;;2.53;;
71558;SDS011;59382;43.852;25.952;2022-07-17T04:46:28;5.50;;;2.78;;
71558;SDS011;59382;43.852;25.952;2022-07-17T04:48:54;5.72;;;2.67;;
71558;SDS011;59382;43.852;25.952;2022-07-17T04:51:19;3.25;;;2.35;;
71558;SDS011;59382;43.852;25.952;2022-07-17T04:53:45;4.85;;;2.70;;
71558;SDS011;59382;43.852;25.952;2022-07-17T04:56:10;7.68;;;2.70;;
71558;SDS011;59382;43.852;25.952;2022-07-17T04:58:42;4.05;;;3.00;;
71558;SDS011;59382;43.852;25.952;2022-07-17T05:01:07;8.45;;;2.97;;
71558;SDS011;59382;43.852;25.952;2022-07-17T05:03:33;3.65;;;2.70;;
71558;SDS011;59382;43.852;25.952;2022-07-17T05:05:59;6.20;;;3.75;;
71558;SDS011;59382;43.852;25.952;2022-07-17T05:08:24;5.20;;;3.00;;
71558;SDS011;59382;43.852;25.952;2022-07-17T05:10:50;10.18;;;3.22;;
71558;SDS011;59382;43.852;25.952;2022-07-17T05:13:15;6.47;;;3.40;;
71558;SDS011;59382;43.852;25.952;2022-07-17T05:15:41;4.45;;;3.03;;
71558;SDS011;59382;43.852;25.952;2022-07-17T05:18:07;3.55;;;2.97;;
71558;SDS011;59382;43.852;25.952;2022-07-17T05:20:32;4.03;;;3.03;;
71558;SDS011;59382;43.852;25.952;2022-07-17T05:22:58;7.50;;;3.58;;
71558;SDS011;59382;43.852;25.952;2022-07-17T05:25:24;7.15;;;3.38;;
71558;SDS011;59382;43.852;25.952;2022-07-17T05:27:51;4.22;;;3.38;;
71558;SDS011;59382;43.852;25.952;2022-07-17T05:30:17;5.97;;;3.50;;
71558;SDS011;59382;43.852;25.952;2022-07-17T05:32:42;10.65;;;3.85;;
71558;SDS011;59382;43.852;25.952;2022-07-17T05:35:08;7.00;;;3.60;;
71558;SDS011;59382;43.852;25.952;2022-07-17T05:37:34;6.60;;;3.72;;
71558;SDS011;59382;43.852;25.952;2022-07-17T05:39:59;9.48;;;3.70;;
71558;SDS011;59382;43.852;25.952;2022-07-17T05:42:25;5.75;;;4.03;;
71558;SDS011;59382;43.852;25.952;2022-07-17T05:44:50;6.82;;;3.63;;
71558;SDS011;59382;43.852;25.952;2022-07-17T05:47:16;34.10;;;6.82;;
71558;SDS011;59382;43.852;25.952;2022-07-17T05:49:41;11.63;;;4.50;;
71558;SDS011;59382;43.852;25.952;2022-07-17T05:52:07;7.82;;;4.53;;
71558;SDS011;59382;43.852;25.952;2022-07-17T05:54:33;6.28;;;4.10;;
71558;SDS011;59382;43.852;25.952;2022-07-17T05:56:59;6.40;;;3.33;;
71558;SDS011;59382;43.852;25.952;2022-07-17T05:59:25;9.50;;;3.58;;
71558;SDS011;59382;43.852;25.952;2022-07-17T06:01:51;6.72;;;3.85;;
71558;SDS011;59382;43.852;25.952;2022-07-17T06:04:17;8.60;;;4.20;;
71558;SDS011;59382;43.852;25.952;2022-07-17T06:06:42;8.45;;;3.40;;
71558;SDS011;59382;43.852;25.952;2022-07-17T06:09:08;6.03;;;3.88;;
71558;SDS011;59382;43.852;25.952;2022-07-17T06:11:34;6.75;;;4.07;;
71558;SDS011;59382;43.852;25.952;2022-07-17T06:13:59;9.05;;;3.53;;
71558;SDS011;59382;43.852;25.952;2022-07-17T06:16:25;5.65;;;3.40;;
71558;SDS011;59382;43.852;25.952;2022-07-17T06:18:50;5.00;;;3.42;;
71558;SDS011;59382;43.852;25.952;2022-07-17T06:21:16;7.65;;;3.65;;
71558;SDS011;59382;43.852;25.952;2022-07-17T06:23:41;5.45;;;3.53;;
71558;SDS011;59382;43.852;25.952;2022-07-17T06:26:07;4.72;;;3.17;;
71558;SDS011;59382;43.852;25.952;2022-07-17T06:28:32;8.95;;;3.83;;
71558;SDS011;59382;43.852;25.952;2022-07-17T06:30:58;7.65;;;3.33;;
71558;SDS011;59382;43.852;25.952;2022-07-17T06:33:24;6.20;;;3.45;;
71558;SDS011;59382;43.852;25.952;2022-07-17T06:35:49;7.82;;;3.72;;
71558;SDS011;59382;43.852;25.952;2022-07-17T06:38:15;8.82;;;4.00;;
71558;SDS011;59382;43.852;25.952;2022-07-17T06:40:40;6.55;;;3.67;;
71558;SDS011;59382;43.852;25.952;2022-07-17T06:43:06;7.28;;;3.58;;
71558;SDS011;59382;43.852;25.952;2022-07-17T06:45:32;4.32;;;3.67;;
71558;SDS011;59382;43.852;25.952;2022-07-17T06:47:59;5.28;;;3.92;;
71558;SDS011;59382;43.852;25.952;2022-07-17T06:50:25;8.95;;;3.53;;
71558;SDS011;59382;43.852;25.952;2022-07-17T06:52:50;6.07;;;3.55;;
71558;SDS011;59382;43.852;25.952;2022-07-17T06:55:16;11.63;;;3.95;;
71558;SDS011;59382;43.852;25.952;2022-07-17T06:57:41;10.05;;;4.03;;
71558;SDS011;59382;43.852;25.952;2022-07-17T07:00:07;5.32;;;3.55;;
71558;SDS011;59382;43.852;25.952;2022-07-17T07:02:34;5.75;;;3.40;;
71558;SDS011;59382;43.852;25.952;2022-07-17T07:05:00;8.60;;;3.75;;
71558;SDS011;59382;43.852;25.952;2022-07-17T07:07:25;7.53;;;3.67;;
71558;SDS011;59382;43.852;25.952;2022-07-17T07:09:51;4.80;;;3.78;;
71558;SDS011;59382;43.852;25.952;2022-07-17T07:12:17;4.70;;;3.40;;
71558;SDS011;59382;43.852;25.952;2022-07-17T07:14:42;4.38;;;3.60;;
71558;SDS011;59382;43.852;25.952;2022-07-17T07:17:08;4.43;;;3.20;;
71558;SDS011;59382;43.852;25.952;2022-07-17T07:19:36;3.90;;;3.55;;
71558;SDS011;59382;43.852;25.952;2022-07-17T07:22:01;6.53;;;3.22;;
71558;SDS011;59382;43.852;25.952;2022-07-17T07:24:27;7.40;;;3.28;;
71558;SDS011;59382;43.852;25.952;2022-07-17T07:26:52;5.82;;;2.88;;
71558;SDS011;59382;43.852;25.952;2022-07-17T07:29:18;3.88;;;2.88;;
71558;SDS011;59382;43.852;25.952;2022-07-17T07:31:44;3.95;;;3.15;;
71558;SDS011;59382;43.852;25.952;2022-07-17T07:34:11;7.20;;;3.80;;
71558;SDS011;59382;43.852;25.952;2022-07-17T07:36:36;5.35;;;3.60;;
71558;SDS011;59382;43.852;25.952;2022-07-17T07:39:02;4.88;;;3.10;;
71558;SDS011;59382;43.852;25.952;2022-07-17T07:41:28;8.90;;;3.38;;
71558;SDS011;59382;43.852;25.952;2022-07-17T07:43:53;6.72;;;3.03;;
71558;SDS011;59382;43.852;25.952;2022-07-17T07:46:19;7.35;;;3.63;;
71558;SDS011;59382;43.852;25.952;2022-07-17T07:48:45;4.45;;;2.92;;
71558;SDS011;59382;43.852;25.952;2022-07-17T07:51:10;6.28;;;3.22;;
71558;SDS011;59382;43.852;25.952;2022-07-17T07:53:37;4.25;;;2.38;;
71558;SDS011;59382;43.852;25.952;2022-07-17T07:56:03;6.95;;;3.30;;
71558;SDS011;59382;43.852;25.952;2022-07-17T07:58:29;4.88;;;2.92;;
71558;SDS011;59382;43.852;25.952;2022-07-17T08:00:54;4.88;;;2.95;;
71558;SDS011;59382;43.852;25.952;2022-07-17T08:03:20;6.22;;;2.80;;
71558;SDS011;59382;43.852;25.952;2022-07-17T08:05:45;4.50;;;3.35;;
71558;SDS011;59382;43.852;25.952;2022-07-17T08:08:11;21.52;;;4.88;;
71558;SDS011;59382;43.852;25.952;2022-07-17T08:10:36;6.00;;;3.30;;
71558;SDS011;59382;43.852;25.952;2022-07-17T08:13:02;4.43;;;2.83;;
71558;SDS011;59382;43.852;25.952;2022-07-17T08:15:28;8.90;;;3.70;;
71558;SDS011;59382;43.852;25.952;2022-07-17T08:17:54;6.30;;;3.60;;
71558;SDS011;59382;43.852;25.952;2022-07-17T08:20:19;6.18;;;3.38;;
71558;SDS011;59382;43.852;25.952;2022-07-17T08:22:46;6.07;;;3.30;;
71558;SDS011;59382;43.852;25.952;2022-07-17T08:25:13;4.85;;;2.88;;
71558;SDS011;59382;43.852;25.952;2022-07-17T08:27:39;7.10;;;2.30;;
71558;SDS011;59382;43.852;25.952;2022-07-17T08:30:08;8.27;;;2.75;;
71558;SDS011;59382;43.852;25.952;2022-07-17T08:32:35;6.53;;;2.72;;
71558;SDS011;59382;43.852;25.952;2022-07-17T08:35:02;6.82;;;2.60;;
71558;SDS011;59382;43.852;25.952;2022-07-17T08:37:28;5.82;;;1.60;;
71558;SDS011;59382;43.852;25.952;2022-07-17T08:39:54;3.28;;;2.17;;
71558;SDS011;59382;43.852;25.952;2022-07-17T08:42:20;2.88;;;2.20;;
71558;SDS011;59382;43.852;25.952;2022-07-17T08:44:45;4.50;;;2.30;;
71558;SDS011;59382;43.852;25.952;2022-07-17T08:47:11;2.53;;;2.00;;
71558;SDS011;59382;43.852;25.952;2022-07-17T08:49:40;6.07;;;1.80;;
71558;SDS011;59382;43.852;25.952;2022-07-17T08:52:12;2.78;;;2.05;;
71558;SDS011;59382;43.852;25.952;2022-07-17T08:54:38;3.55;;;1.80;;
71558;SDS011;59382;43.852;25.952;2022-07-17T08:57:04;2.40;;;1.92;;
71558;SDS011;59382;43.852;25.952;2022-07-17T08:59:30;2.92;;;1.70;;
71558;SDS011;59382;43.852;25.952;2022-07-17T09:01:57;5.22;;;1.92;;
71558;SDS011;59382;43.852;25.952;2022-07-17T09:04:23;2.00;;;1.80;;
71558;SDS011;59382;43.852;25.952;2022-07-17T09:06:59;4.22;;;1.77;;
71558;SDS011;59382;43.852;25.952;2022-07-17T09:09:26;2.83;;;1.50;;
71558;SDS011;59382;43.852;25.952;2022-07-17T09:11:56;2.10;;;1.83;;
71558;SDS011;59382;43.852;25.952;2022-07-17T09:14:24;2.22;;;1.88;;
71558;SDS011;59382;43.852;25.952;2022-07-17T09:17:00;5.43;;;2.05;;
71558;SDS011;59382;43.852;25.952;2022-07-17T09:19:29;3.85;;;2.00;;
71558;SDS011;59382;43.852;25.952;2022-07-17T09:22:17;2.88;;;2.17;;
71558;SDS011;59382;43.852;25.952;2022-07-17T09:24:47;2.63;;;2.13;;
71558;SDS011;59382;43.852;25.952;2022-07-17T09:27:14;2.30;;;1.63;;
71558;SDS011;59382;43.852;25.952;2022-07-17T09:32:17;5.28;;;2.22;;
71558;SDS011;59382;43.852;25.952;2022-07-17T09:34:47;8.60;;;2.50;;
71558;SDS011;59382;43.852;25.952;2022-07-17T09:37:13;7.50;;;3.03;;
71558;SDS011;59382;43.852;25.952;2022-07-17T09:39:39;4.63;;;2.10;;
71558;SDS011;59382;43.852;25.952;2022-07-17T09:42:06;3.17;;;2.20;;
71558;SDS011;59382;43.852;25.952;2022-07-17T09:44:31;6.35;;;1.85;;
71558;SDS011;59382;43.852;25.952;2022-07-17T09:46:57;2.13;;;1.92;;
71558;SDS011;59382;43.852;25.952;2022-07-17T09:49:25;2.03;;;1.90;;
71558;SDS011;59382;43.852;25.952;2022-07-17T09:51:52;1.67;;;1.58;;
71558;SDS011;59382;43.852;25.952;2022-07-17T09:54:20;2.55;;;2.15;;
71558;SDS011;59382;43.852;25.952;2022-07-17T09:56:49;2.42;;;2.22;;
71558;SDS011;59382;43.852;25.952;2022-07-17T09:59:16;5.05;;;2.30;;
71558;SDS011;59382;43.852;25.952;2022-07-17T10:01:42;2.95;;;2.17;;
71558;SDS011;59382;43.852;25.952;2022-07-17T10:04:10;4.15;;;2.33;;
71558;SDS011;59382;43.852;25.952;2022-07-17T10:06:37;2.70;;;1.98;;
71558;SDS011;59382;43.852;25.952;2022-07-17T10:09:03;4.82;;;1.60;;
71558;SDS011;59382;43.852;25.952;2022-07-17T10:11:31;3.88;;;1.83;;
71558;SDS011;59382;43.852;25.952;2022-07-17T10:14:18;3.03;;;1.70;;
71558;SDS011;59382;43.852;25.952;2022-07-17T10:16:46;3.55;;;1.60;;
71558;SDS011;59382;43.852;25.952;2022-07-17T10:19:17;2.83;;;1.83;;
71558;SDS011;59382;43.852;25.952;2022-07-17T10:22:00;3.03;;;1.90;;
71558;SDS011;59382;43.852;25.952;2022-07-17T10:24:31;6.05;;;2.05;;
71558;SDS011;59382;43.852;25.952;2022-07-17T10:26:57;1.67;;;1.58;;
71558;SDS011;59382;43.852;25.952;2022-07-17T10:29:28;2.42;;;1.55;;
71558;SDS011;59382;43.852;25.952;2022-07-17T10:32:08;3.80;;;2.28;;
71558;SDS011;59382;43.852;25.952;2022-07-17T10:37:31;3.03;;;1.98;;
71558;SDS011;59382;43.852;25.952;2022-07-17T10:42:43;7.32;;;1.48;;
71558;SDS011;59382;43.852;25.952;2022-07-17T10:45:10;2.38;;;1.83;;
71558;SDS011;59382;43.852;25.952;2022-07-17T10:47:43;6.35;;;1.77;;
71558;SDS011;59382;43.852;25.952;2022-07-17T10:50:13;3.65;;;1.90;;
71558;SDS011;59382;43.852;25.952;2022-07-17T10:52:39;8.73;;;1.83;;
71558;SDS011;59382;43.852;25.952;2022-07-17T10:55:16;2.58;;;1.77;;
71558;SDS011;59382;43.852;25.952;2022-07-17T10:57:43;3.72;;;1.70;;
71558;SDS011;59382;43.852;25.952;2022-07-17T11:00:08;4.25;;;1.60;;
71558;SDS011;59382;43.852;25.952;2022-07-17T11:02:37;1.95;;;1.52;;
71558;SDS011;59382;43.852;25.952;2022-07-17T11:05:07;2.60;;;1.45;;
71558;SDS011;59382;43.852;25.952;2022-07-17T11:07:55;5.18;;;1.92;;
71558;SDS011;59382;43.852;25.952;2022-07-17T11:10:25;2.97;;;1.42;;
71558;SDS011;59382;43.852;25.952;2022-07-17T11:12:55;3.28;;;1.60;;
71558;SDS011;59382;43.852;25.952;2022-07-17T11:15:43;1.57;;;1.47;;
71558;SDS011;59382;43.852;25.952;2022-07-17T11:18:18;1.77;;;1.67;;
71558;SDS011;59382;43.852;25.952;2022-07-17T11:20:49;3.97;;;1.77;;
71558;SDS011;59382;43.852;25.952;2022-07-17T11:23:17;2.17;;;1.52;;
71558;SDS011;59382;43.852;25.952;2022-07-17T11:25:53;1.88;;;1.73;;
71558;SDS011;59382;43.852;25.952;2022-07-17T11:28:34;3.20;;;1.52;;
71558;SDS011;59382;43.852;25.952;2022-07-17T11:31:26;2.53;;;1.80;;
71558;SDS011;59382;43.852;25.952;2022-07-17T11:33:53;5.38;;;1.40;;
71558;SDS011;59382;43.852;25.952;2022-07-17T11:36:24;2.38;;;1.77;;
71558;SDS011;59382;43.852;25.952;2022-07-17T11:38:56;3.20;;;1.67;;
71558;SDS011;59382;43.852;25.952;2022-07-17T11:41:30;2.88;;;1.75;;
71558;SDS011;59382;43.852;25.952;2022-07-17T11:43:57;5.82;;;1.80;;
71558;SDS011;59382;43.852;25.952;2022-07-17T11:46:23;2.25;;;2.05;;
71558;SDS011;59382;43.852;25.952;2022-07-17T11:48:50;2.15;;;1.95;;
71558;SDS011;59382;43.852;25.952;2022-07-17T11:51:16;4.05;;;1.60;;
71558;SDS011;59382;43.852;25.952;2022-07-17T11:53:43;3.72;;;1.50;;
71558;SDS011;59382;43.852;25.952;2022-07-17T11:56:18;3.30;;;1.85;;
71558;SDS011;59382;43.852;25.952;2022-07-17T11:58:45;5.68;;;2.30;;
71558;SDS011;59382;43.852;25.952;2022-07-17T12:01:12;2.15;;;1.95;;
71558;SDS011;59382;43.852;25.952;2022-07-17T12:03:39;3.15;;;2.20;;
71558;SDS011;59382;43.852;25.952;2022-07-17T12:06:05;4.40;;;2.40;;
71558;SDS011;59382;43.852;25.952;2022-07-17T12:08:31;3.97;;;2.85;;
71558;SDS011;59382;43.852;25.952;2022-07-17T12:11:05;8.65;;;3.50;;
71558;SDS011;59382;43.852;25.952;2022-07-17T12:16:19;2.20;;;1.58;;
71558;SDS011;59382;43.852;25.952;2022-07-17T12:18:53;4.72;;;2.38;;
71558;SDS011;59382;43.852;25.952;2022-07-17T12:21:20;5.15;;;2.05;;
71558;SDS011;59382;43.852;25.952;2022-07-17T12:23:54;4.63;;;1.65;;
71558;SDS011;59382;43.852;25.952;2022-07-17T12:26:22;2.33;;;1.60;;
71558;SDS011;59382;43.852;25.952;2022-07-17T12:28:48;2.80;;;2.15;;
71558;SDS011;59382;43.852;25.952;2022-07-17T12:31:13;2.70;;;1.65;;
71558;SDS011;59382;43.852;25.952;2022-07-17T12:33:42;1.67;;;1.40;;
71558;SDS011;59382;43.852;25.952;2022-07-17T12:36:08;3.58;;;2.13;;
71558;SDS011;59382;43.852;25.952;2022-07-17T12:38:34;2.65;;;1.63;;
71558;SDS011;59382;43.852;25.952;2022-07-17T12:41:00;2.47;;;1.42;;
71558;SDS011;59382;43.852;25.952;2022-07-17T12:43:26;4.25;;;1.55;;
71558;SDS011;59382;43.852;25.952;2022-07-17T12:45:51;6.28;;;1.60;;
71558;SDS011;59382;43.852;25.952;2022-07-17T12:48:18;3.45;;;3.10;;
71558;SDS011;59382;43.852;25.952;2022-07-17T12:50:43;2.80;;;2.13;;
71558;SDS011;59382;43.852;25.952;2022-07-17T12:53:09;2.22;;;2.03;;
71558;SDS011;59382;43.852;25.952;2022-07-17T12:55:35;2.30;;;1.77;;
71558;SDS011;59382;43.852;25.952;2022-07-17T12:58:02;3.97;;;2.28;;
71558;SDS011;59382;43.852;25.952;2022-07-17T13:00:29;2.08;;;1.92;;
71558;SDS011;59382;43.852;25.952;2022-07-17T13:02:55;6.30;;;2.80;;
71558;SDS011;59382;43.852;25.952;2022-07-17T13:05:20;3.13;;;2.83;;
71558;SDS011;59382;43.852;25.952;2022-07-17T13:07:46;3.47;;;2.55;;
71558;SDS011;59382;43.852;25.952;2022-07-17T13:10:12;4.22;;;2.95;;
71558;SDS011;59382;43.852;25.952;2022-07-17T13:12:37;8.55;;;3.13;;
71558;SDS011;59382;43.852;25.952;2022-07-17T13:15:03;4.60;;;3.10;;
71558;SDS011;59382;43.852;25.952;2022-07-17T13:17:29;4.93;;;3.70;;
71558;SDS011;59382;43.852;25.952;2022-07-17T13:19:55;5.43;;;3.55;;
71558;SDS011;59382;43.852;25.952;2022-07-17T13:22:20;3.80;;;3.20;;
71558;SDS011;59382;43.852;25.952;2022-07-17T13:24:46;8.05;;;3.05;;
71558;SDS011;59382;43.852;25.952;2022-07-17T13:27:12;2.90;;;2.70;;
71558;SDS011;59382;43.852;25.952;2022-07-17T13:29:38;3.63;;;2.55;;
71558;SDS011;59382;43.852;25.952;2022-07-17T13:32:04;4.35;;;2.45;;
71558;SDS011;59382;43.852;25.952;2022-07-17T13:34:30;8.88;;;3.70;;
71558;SDS011;59382;43.852;25.952;2022-07-17T13:36:56;4.43;;;2.38;;
71558;SDS011;59382;43.852;25.952;2022-07-17T13:39:22;4.85;;;2.75;;
71558;SDS011;59382;43.852;25.952;2022-07-17T13:41:48;3.03;;;2.72;;
71558;SDS011;59382;43.852;25.952;2022-07-17T13:44:14;3.15;;;2.55;;
71558;SDS011;59382;43.852;25.952;2022-07-17T13:46:40;4.10;;;2.85;;
71558;SDS011;59382;43.852;25.952;2022-07-17T13:49:05;3.75;;;3.10;;
71558;SDS011;59382;43.852;25.952;2022-07-17T13:51:31;4.00;;;3.20;;
71558;SDS011;59382;43.852;25.952;2022-07-17T13:53:57;7.00;;;3.20;;
71558;SDS011;59382;43.852;25.952;2022-07-17T13:56:23;5.85;;;2.90;;
71558;SDS011;59382;43.852;25.952;2022-07-17T13:58:49;4.40;;;3.03;;
71558;SDS011;59382;43.852;25.952;2022-07-17T14:01:14;2.53;;;2.33;;
71558;SDS011;59382;43.852;25.952;2022-07-17T14:03:41;6.35;;;3.40;;
71558;SDS011;59382;43.852;25.952;2022-07-17T14:06:06;6.20;;;2.85;;
71558;SDS011;59382;43.852;25.952;2022-07-17T14:08:33;4.72;;;2.60;;
71558;SDS011;59382;43.852;25.952;2022-07-17T14:10:59;8.45;;;2.90;;
71558;SDS011;59382;43.852;25.952;2022-07-17T14:13:24;5.30;;;2.97;;
71558;SDS011;59382;43.852;25.952;2022-07-17T14:15:50;2.90;;;2.28;;
71558;SDS011;59382;43.852;25.952;2022-07-17T14:18:16;2.40;;;2.00;;
71558;SDS011;59382;43.852;25.952;2022-07-17T14:20:42;3.78;;;2.20;;
71558;SDS011;59382;43.852;25.952;2022-07-17T14:23:08;4.63;;;2.28;;
71558;SDS011;59382;43.852;25.952;2022-07-17T14:25:34;3.72;;;2.30;;
71558;SDS011;59382;43.852;25.952;2022-07-17T14:27:59;5.15;;;3.45;;
71558;SDS011;59382;43.852;25.952;2022-07-17T14:30:25;4.93;;;2.63;;
71558;SDS011;59382;43.852;25.952;2022-07-17T14:32:51;4.25;;;3.60;;
71558;SDS011;59382;43.852;25.952;2022-07-17T14:35:17;7.40;;;3.10;;
71558;SDS011;59382;43.852;25.952;2022-07-17T14:37:44;5.10;;;2.70;;
71558;SDS011;59382;43.852;25.952;2022-07-17T14:40:10;7.88;;;3.50;;
71558;SDS011;59382;43.852;25.952;2022-07-17T14:42:36;6.13;;;3.08;;